sensor_id;sensor_type;location;lat;lon;timestamp;temperature;humidity
2647;DHT22;1333;50.958;6.770;2022-07-06T00:01:32;14.50;99.90
2647;DHT22;1333;50.958;6.770;2022-07-06T00:03:57;14.50;99.90
2647;DHT22;1333;50.958;6.770;2022-07-06T00:06:23;14.40;99.90
2647;DHT22;1333;50.958;6.770;2022-07-06T00:08:49;14.30;99.90
2647;DHT22;1333;50.958;6.770;2022-07-06T00:11:15;14.30;99.90
2647;DHT22;1333;50.958;6.770;2022-07-06T00:13:40;14.20;99.90
2647;DHT22;1333;50.958;6.770;2022-07-06T00:16:06;14.20;99.90
2647;DHT22;1333;50.958;6.770;2022-07-06T00:18:32;14.20;99.90
2647;DHT22;1333;50.958;6.770;2022-07-06T00:20:57;14.20;99.90
2647;DHT22;1333;50.958;6.770;2022-07-06T00:23:23;14.10;99.90
2647;DHT22;1333;50.958;6.770;2022-07-06T00:25:48;14.10;99.90
2647;DHT22;1333;50.958;6.770;2022-07-06T00:28:14;14.00;99.90
2647;DHT22;1333;50.958;6.770;2022-07-06T00:30:40;14.00;99.90
2647;DHT22;1333;50.958;6.770;2022-07-06T00:33:06;13.90;99.90
2647;DHT22;1333;50.958;6.770;2022-07-06T00:35:32;13.80;99.90
2647;DHT22;1333;50.958;6.770;2022-07-06T00:37:58;13.80;99.90
2647;DHT22;1333;50.958;6.770;2022-07-06T00:40:23;13.70;99.90
2647;DHT22;1333;50.958;6.770;2022-07-06T00:42:49;13.70;99.90
2647;DHT22;1333;50.958;6.770;2022-07-06T00:45:16;13.70;99.90
2647;DHT22;1333;50.958;6.770;2022-07-06T00:47:43;13.60;99.90
2647;DHT22;1333;50.958;6.770;2022-07-06T00:50:11;13.50;99.90
2647;DHT22;1333;50.958;6.770;2022-07-06T00:52:45;13.50;99.90
2647;DHT22;1333;50.958;6.770;2022-07-06T00:55:12;13.50;99.90
2647;DHT22;1333;50.958;6.770;2022-07-06T00:57:39;13.40;99.90
2647;DHT22;1333;50.958;6.770;2022-07-06T01:00:06;13.30;99.90
2647;DHT22;1333;50.958;6.770;2022-07-06T01:02:33;13.30;99.90
2647;DHT22;1333;50.958;6.770;2022-07-06T01:04:59;13.20;99.90
2647;DHT22;1333;50.958;6.770;2022-07-06T01:07:25;13.20;99.90
2647;DHT22;1333;50.958;6.770;2022-07-06T01:09:51;13.10;99.90
2647;DHT22;1333;50.958;6.770;2022-07-06T01:12:17;13.10;99.90
2647;DHT22;1333;50.958;6.770;2022-07-06T01:14:42;13.10;99.90
2647;DHT22;1333;50.958;6.770;2022-07-06T01:17:09;13.00;99.90
2647;DHT22;1333;50.958;6.770;2022-07-06T01:19:34;13.00;99.90
2647;DHT22;1333;50.958;6.770;2022-07-06T01:22:00;13.00;99.90
2647;DHT22;1333;50.958;6.770;2022-07-06T01:24:26;13.00;99.90
2647;DHT22;1333;50.958;6.770;2022-07-06T01:26:51;13.00;99.90
2647;DHT22;1333;50.958;6.770;2022-07-06T01:29:17;12.90;99.90
2647;DHT22;1333;50.958;6.770;2022-07-06T01:31:48;12.90;99.90
2647;DHT22;1333;50.958;6.770;2022-07-06T01:34:14;12.90;99.90
2647;DHT22;1333;50.958;6.770;2022-07-06T01:36:41;12.90;99.90
2647;DHT22;1333;50.958;6.770;2022-07-06T01:39:08;12.90;99.90
2647;DHT22;1333;50.958;6.770;2022-07-06T01:41:34;12.90;99.90
2647;DHT22;1333;50.958;6.770;2022-07-06T01:44:00;12.90;99.90
2647;DHT22;1333;50.958;6.770;2022-07-06T01:46:26;12.90;99.90
2647;DHT22;1333;50.958;6.770;2022-07-06T01:48:52;12.80;99.90
2647;DHT22;1333;50.958;6.770;2022-07-06T01:51:17;12.80;99.90
2647;DHT22;1333;50.958;6.770;2022-07-06T01:53:43;12.80;99.90
2647;DHT22;1333;50.958;6.770;2022-07-06T01:56:10;12.70;99.90
2647;DHT22;1333;50.958;6.770;2022-07-06T01:58:35;12.70;99.90
2647;DHT22;1333;50.958;6.770;2022-07-06T02:01:08;12.70;99.90
2647;DHT22;1333;50.958;6.770;2022-07-06T02:03:34;12.60;99.90
2647;DHT22;1333;50.958;6.770;2022-07-06T02:06:00;12.60;99.90
2647;DHT22;1333;50.958;6.770;2022-07-06T02:08:26;12.60;99.90
2647;DHT22;1333;50.958;6.770;2022-07-06T02:10:51;12.60;99.90
2647;DHT22;1333;50.958;6.770;2022-07-06T02:13:17;12.60;99.90
2647;DHT22;1333;50.958;6.770;2022-07-06T02:15:42;12.60;99.90
2647;DHT22;1333;50.958;6.770;2022-07-06T02:18:08;12.50;99.90
2647;DHT22;1333;50.958;6.770;2022-07-06T02:20:34;12.50;99.90
2647;DHT22;1333;50.958;6.770;2022-07-06T02:22:59;12.50;99.90
2647;DHT22;1333;50.958;6.770;2022-07-06T02:25:25;12.50;99.90
2647;DHT22;1333;50.958;6.770;2022-07-06T02:27:50;12.40;99.90
2647;DHT22;1333;50.958;6.770;2022-07-06T02:30:16;12.40;99.90
2647;DHT22;1333;50.958;6.770;2022-07-06T02:32:42;12.40;99.90
2647;DHT22;1333;50.958;6.770;2022-07-06T02:35:08;12.40;99.90
2647;DHT22;1333;50.958;6.770;2022-07-06T02:37:33;12.30;99.90
2647;DHT22;1333;50.958;6.770;2022-07-06T02:39:59;12.30;99.90
2647;DHT22;1333;50.958;6.770;2022-07-06T02:42:24;12.30;99.90
2647;DHT22;1333;50.958;6.770;2022-07-06T02:44:52;12.20;99.90
2647;DHT22;1333;50.958;6.770;2022-07-06T02:47:18;12.20;99.90
2647;DHT22;1333;50.958;6.770;2022-07-06T02:49:44;12.20;99.90
2647;DHT22;1333;50.958;6.770;2022-07-06T02:52:09;12.20;99.90
2647;DHT22;1333;50.958;6.770;2022-07-06T02:54:35;12.20;99.90
2647;DHT22;1333;50.958;6.770;2022-07-06T02:57:00;12.10;99.90
2647;DHT22;1333;50.958;6.770;2022-07-06T02:59:26;12.10;99.90
2647;DHT22;1333;50.958;6.770;2022-07-06T03:01:52;12.10;99.90
2647;DHT22;1333;50.958;6.770;2022-07-06T03:04:17;12.10;99.90
2647;DHT22;1333;50.958;6.770;2022-07-06T03:06:43;12.10;99.90
2647;DHT22;1333;50.958;6.770;2022-07-06T03:09:08;12.00;99.90
2647;DHT22;1333;50.958;6.770;2022-07-06T03:11:34;12.00;99.90
2647;DHT22;1333;50.958;6.770;2022-07-06T03:14:05;12.00;99.90
2647;DHT22;1333;50.958;6.770;2022-07-06T03:16:31;12.00;99.90
2647;DHT22;1333;50.958;6.770;2022-07-06T03:18:57;11.90;99.90
2647;DHT22;1333;50.958;6.770;2022-07-06T03:21:24;12.00;99.90
2647;DHT22;1333;50.958;6.770;2022-07-06T03:23:49;11.90;99.90
2647;DHT22;1333;50.958;6.770;2022-07-06T03:26:15;11.90;99.90
2647;DHT22;1333;50.958;6.770;2022-07-06T03:28:40;11.90;99.90
2647;DHT22;1333;50.958;6.770;2022-07-06T03:31:06;11.90;99.90
2647;DHT22;1333;50.958;6.770;2022-07-06T03:33:32;11.80;99.90
2647;DHT22;1333;50.958;6.770;2022-07-06T03:35:57;11.90;99.90
2647;DHT22;1333;50.958;6.770;2022-07-06T03:38:23;11.90;99.90
2647;DHT22;1333;50.958;6.770;2022-07-06T03:40:48;11.80;99.90
2647;DHT22;1333;50.958;6.770;2022-07-06T03:43:14;11.90;99.90
2647;DHT22;1333;50.958;6.770;2022-07-06T03:45:40;11.90;99.90
2647;DHT22;1333;50.958;6.770;2022-07-06T03:48:05;11.90;99.90
2647;DHT22;1333;50.958;6.770;2022-07-06T03:50:31;11.90;99.90
2647;DHT22;1333;50.958;6.770;2022-07-06T03:52:57;11.90;99.90
2647;DHT22;1333;50.958;6.770;2022-07-06T03:55:23;12.00;99.90
2647;DHT22;1333;50.958;6.770;2022-07-06T03:57:48;12.00;99.90
2647;DHT22;1333;50.958;6.770;2022-07-06T04:00:14;12.00;99.90
2647;DHT22;1333;50.958;6.770;2022-07-06T04:02:40;12.10;99.90
2647;DHT22;1333;50.958;6.770;2022-07-06T04:05:06;12.10;99.90
2647;DHT22;1333;50.958;6.770;2022-07-06T04:07:31;12.10;99.90
2647;DHT22;1333;50.958;6.770;2022-07-06T04:09:57;12.20;99.90
2647;DHT22;1333;50.958;6.770;2022-07-06T04:12:23;12.20;99.90
2647;DHT22;1333;50.958;6.770;2022-07-06T04:14:48;12.30;99.90
2647;DHT22;1333;50.958;6.770;2022-07-06T04:17:14;12.30;99.90
2647;DHT22;1333;50.958;6.770;2022-07-06T04:19:58;12.40;99.90
2647;DHT22;1333;50.958;6.770;2022-07-06T04:22:23;12.40;99.90
2647;DHT22;1333;50.958;6.770;2022-07-06T04:24:49;12.40;99.90
2647;DHT22;1333;50.958;6.770;2022-07-06T04:27:14;12.50;99.90
2647;DHT22;1333;50.958;6.770;2022-07-06T04:29:40;12.50;99.90
2647;DHT22;1333;50.958;6.770;2022-07-06T04:32:06;12.60;99.90
2647;DHT22;1333;50.958;6.770;2022-07-06T04:34:32;12.60;99.90
2647;DHT22;1333;50.958;6.770;2022-07-06T04:36:57;12.70;99.90
2647;DHT22;1333;50.958;6.770;2022-07-06T04:39:23;12.80;99.90
2647;DHT22;1333;50.958;6.770;2022-07-06T04:41:49;12.80;99.90
2647;DHT22;1333;50.958;6.770;2022-07-06T04:44:14;12.90;99.90
2647;DHT22;1333;50.958;6.770;2022-07-06T04:46:40;12.90;99.90
2647;DHT22;1333;50.958;6.770;2022-07-06T04:49:05;13.00;99.90
2647;DHT22;1333;50.958;6.770;2022-07-06T04:51:32;13.10;99.90
2647;DHT22;1333;50.958;6.770;2022-07-06T04:53:57;13.20;99.90
2647;DHT22;1333;50.958;6.770;2022-07-06T04:56:23;13.20;99.90
2647;DHT22;1333;50.958;6.770;2022-07-06T04:58:49;13.30;99.90
2647;DHT22;1333;50.958;6.770;2022-07-06T05:01:14;13.40;99.90
2647;DHT22;1333;50.958;6.770;2022-07-06T05:03:40;13.60;99.90
2647;DHT22;1333;50.958;6.770;2022-07-06T05:06:06;13.60;99.90
2647;DHT22;1333;50.958;6.770;2022-07-06T05:08:32;13.70;99.90
2647;DHT22;1333;50.958;6.770;2022-07-06T05:10:58;13.80;99.90
2647;DHT22;1333;50.958;6.770;2022-07-06T05:13:23;13.90;99.90
2647;DHT22;1333;50.958;6.770;2022-07-06T05:15:49;14.00;99.90
2647;DHT22;1333;50.958;6.770;2022-07-06T05:18:15;14.00;99.90
2647;DHT22;1333;50.958;6.770;2022-07-06T05:20:40;14.10;99.90
2647;DHT22;1333;50.958;6.770;2022-07-06T05:23:06;14.20;99.90
2647;DHT22;1333;50.958;6.770;2022-07-06T05:25:31;14.30;99.90
2647;DHT22;1333;50.958;6.770;2022-07-06T05:27:58;14.40;99.90
2647;DHT22;1333;50.958;6.770;2022-07-06T05:30:24;14.50;99.90
2647;DHT22;1333;50.958;6.770;2022-07-06T05:32:50;14.70;99.90
2647;DHT22;1333;50.958;6.770;2022-07-06T05:35:15;14.80;99.90
2647;DHT22;1333;50.958;6.770;2022-07-06T05:37:41;14.90;99.90
2647;DHT22;1333;50.958;6.770;2022-07-06T05:40:08;15.10;99.90
2647;DHT22;1333;50.958;6.770;2022-07-06T05:42:33;15.30;99.90
2647;DHT22;1333;50.958;6.770;2022-07-06T05:44:59;15.40;99.90
2647;DHT22;1333;50.958;6.770;2022-07-06T05:47:24;15.60;99.90
2647;DHT22;1333;50.958;6.770;2022-07-06T05:50:09;15.70;99.90
2647;DHT22;1333;50.958;6.770;2022-07-06T05:52:38;15.80;99.90
2647;DHT22;1333;50.958;6.770;2022-07-06T05:55:04;16.00;99.90
2647;DHT22;1333;50.958;6.770;2022-07-06T05:57:30;16.10;99.90
2647;DHT22;1333;50.958;6.770;2022-07-06T05:59:55;16.30;99.90
2647;DHT22;1333;50.958;6.770;2022-07-06T06:02:21;16.50;99.90
2647;DHT22;1333;50.958;6.770;2022-07-06T06:04:46;16.80;99.90
2647;DHT22;1333;50.958;6.770;2022-07-06T06:07:12;17.00;99.90
2647;DHT22;1333;50.958;6.770;2022-07-06T06:09:37;17.30;99.90
2647;DHT22;1333;50.958;6.770;2022-07-06T06:12:03;17.60;99.90
2647;DHT22;1333;50.958;6.770;2022-07-06T06:14:29;17.80;99.90
2647;DHT22;1333;50.958;6.770;2022-07-06T06:16:54;18.00;99.90
2647;DHT22;1333;50.958;6.770;2022-07-06T06:19:20;18.30;99.90
2647;DHT22;1333;50.958;6.770;2022-07-06T06:21:46;18.70;99.90
2647;DHT22;1333;50.958;6.770;2022-07-06T06:24:11;19.30;99.90
2647;DHT22;1333;50.958;6.770;2022-07-06T06:26:37;20.00;99.90
2647;DHT22;1333;50.958;6.770;2022-07-06T06:29:02;20.80;99.90
2647;DHT22;1333;50.958;6.770;2022-07-06T06:31:28;21.60;99.90
2647;DHT22;1333;50.958;6.770;2022-07-06T06:33:53;22.20;99.90
2647;DHT22;1333;50.958;6.770;2022-07-06T06:36:19;22.60;99.90
2647;DHT22;1333;50.958;6.770;2022-07-06T06:38:45;22.90;99.70
2647;DHT22;1333;50.958;6.770;2022-07-06T06:41:10;23.60;98.60
2647;DHT22;1333;50.958;6.770;2022-07-06T06:43:36;24.10;93.30
2647;DHT22;1333;50.958;6.770;2022-07-06T06:46:01;24.10;89.80
2647;DHT22;1333;50.958;6.770;2022-07-06T06:48:27;23.90;89.30
2647;DHT22;1333;50.958;6.770;2022-07-06T06:50:53;23.70;90.30
2647;DHT22;1333;50.958;6.770;2022-07-06T06:53:18;23.40;88.40
2647;DHT22;1333;50.958;6.770;2022-07-06T06:55:44;23.20;91.20
2647;DHT22;1333;50.958;6.770;2022-07-06T06:58:09;22.80;93.40
2647;DHT22;1333;50.958;6.770;2022-07-06T07:00:35;22.60;92.50
2647;DHT22;1333;50.958;6.770;2022-07-06T07:03:01;22.00;94.70
2647;DHT22;1333;50.958;6.770;2022-07-06T07:05:26;21.40;99.90
2647;DHT22;1333;50.958;6.770;2022-07-06T07:07:52;21.10;99.90
2647;DHT22;1333;50.958;6.770;2022-07-06T07:10:17;21.10;99.90
2647;DHT22;1333;50.958;6.770;2022-07-06T07:12:44;21.00;99.90
2647;DHT22;1333;50.958;6.770;2022-07-06T07:15:10;20.80;99.90
2647;DHT22;1333;50.958;6.770;2022-07-06T07:17:36;20.70;99.90
2647;DHT22;1333;50.958;6.770;2022-07-06T07:20:02;20.80;99.90
2647;DHT22;1333;50.958;6.770;2022-07-06T07:22:27;20.70;99.90
2647;DHT22;1333;50.958;6.770;2022-07-06T07:24:53;20.90;99.90
2647;DHT22;1333;50.958;6.770;2022-07-06T07:27:18;21.50;99.90
2647;DHT22;1333;50.958;6.770;2022-07-06T07:29:44;21.70;99.90
2647;DHT22;1333;50.958;6.770;2022-07-06T07:32:09;21.90;99.90
2647;DHT22;1333;50.958;6.770;2022-07-06T07:34:35;22.40;99.90
2647;DHT22;1333;50.958;6.770;2022-07-06T07:37:00;22.70;99.70
2647;DHT22;1333;50.958;6.770;2022-07-06T07:39:26;22.60;99.60
2647;DHT22;1333;50.958;6.770;2022-07-06T07:41:52;22.30;99.90
2647;DHT22;1333;50.958;6.770;2022-07-06T07:44:17;22.10;99.30
2647;DHT22;1333;50.958;6.770;2022-07-06T07:46:43;21.70;99.90
2647;DHT22;1333;50.958;6.770;2022-07-06T07:49:08;21.50;99.90
2647;DHT22;1333;50.958;6.770;2022-07-06T07:51:34;21.20;99.90
2647;DHT22;1333;50.958;6.770;2022-07-06T07:54:00;21.00;99.90
2647;DHT22;1333;50.958;6.770;2022-07-06T07:56:25;20.60;99.90
2647;DHT22;1333;50.958;6.770;2022-07-06T07:58:51;20.30;99.90
2647;DHT22;1333;50.958;6.770;2022-07-06T08:01:16;20.10;99.90
2647;DHT22;1333;50.958;6.770;2022-07-06T08:03:42;20.10;99.90
2647;DHT22;1333;50.958;6.770;2022-07-06T08:06:07;19.90;99.90
2647;DHT22;1333;50.958;6.770;2022-07-06T08:08:33;19.90;99.90
2647;DHT22;1333;50.958;6.770;2022-07-06T08:10:59;19.80;99.90
2647;DHT22;1333;50.958;6.770;2022-07-06T08:13:24;19.80;99.90
2647;DHT22;1333;50.958;6.770;2022-07-06T08:15:50;19.70;99.90
2647;DHT22;1333;50.958;6.770;2022-07-06T08:18:15;19.50;99.90
2647;DHT22;1333;50.958;6.770;2022-07-06T08:20:41;19.10;99.90
2647;DHT22;1333;50.958;6.770;2022-07-06T08:23:06;19.00;99.90
2647;DHT22;1333;50.958;6.770;2022-07-06T08:25:32;19.00;99.90
2647;DHT22;1333;50.958;6.770;2022-07-06T08:27:58;18.80;99.90
2647;DHT22;1333;50.958;6.770;2022-07-06T08:30:23;18.80;99.90
2647;DHT22;1333;50.958;6.770;2022-07-06T08:32:49;18.60;99.90
2647;DHT22;1333;50.958;6.770;2022-07-06T08:35:14;18.50;99.90
2647;DHT22;1333;50.958;6.770;2022-07-06T08:37:40;18.50;99.90
2647;DHT22;1333;50.958;6.770;2022-07-06T08:40:06;18.40;99.90
2647;DHT22;1333;50.958;6.770;2022-07-06T08:42:34;18.40;99.90
2647;DHT22;1333;50.958;6.770;2022-07-06T08:45:03;18.40;99.90
2647;DHT22;1333;50.958;6.770;2022-07-06T08:47:29;18.50;99.90
2647;DHT22;1333;50.958;6.770;2022-07-06T08:49:55;18.50;99.90
2647;DHT22;1333;50.958;6.770;2022-07-06T08:52:23;18.50;99.90
2647;DHT22;1333;50.958;6.770;2022-07-06T08:54:49;18.70;99.90
2647;DHT22;1333;50.958;6.770;2022-07-06T08:57:14;18.70;99.90
2647;DHT22;1333;50.958;6.770;2022-07-06T08:59:40;18.80;99.90
2647;DHT22;1333;50.958;6.770;2022-07-06T09:02:06;18.90;99.90
2647;DHT22;1333;50.958;6.770;2022-07-06T09:04:35;18.90;99.90
2647;DHT22;1333;50.958;6.770;2022-07-06T09:07:01;18.70;99.90
2647;DHT22;1333;50.958;6.770;2022-07-06T09:09:29;18.60;99.90
2647;DHT22;1333;50.958;6.770;2022-07-06T09:11:56;18.60;99.90
2647;DHT22;1333;50.958;6.770;2022-07-06T09:14:22;18.40;99.90
2647;DHT22;1333;50.958;6.770;2022-07-06T09:16:52;18.40;99.90
2647;DHT22;1333;50.958;6.770;2022-07-06T09:19:25;18.40;99.90
2647;DHT22;1333;50.958;6.770;2022-07-06T09:21:51;18.40;99.90
2647;DHT22;1333;50.958;6.770;2022-07-06T09:24:16;18.40;99.90
2647;DHT22;1333;50.958;6.770;2022-07-06T09:26:42;18.40;99.90
2647;DHT22;1333;50.958;6.770;2022-07-06T09:29:08;18.50;99.90
2647;DHT22;1333;50.958;6.770;2022-07-06T09:31:35;18.50;99.90
2647;DHT22;1333;50.958;6.770;2022-07-06T09:34:04;18.60;99.90
2647;DHT22;1333;50.958;6.770;2022-07-06T09:41:49;18.80;99.90
2647;DHT22;1333;50.958;6.770;2022-07-06T09:44:26;19.00;99.90
2647;DHT22;1333;50.958;6.770;2022-07-06T09:46:52;19.30;99.90
2647;DHT22;1333;50.958;6.770;2022-07-06T09:49:21;19.80;99.90
2647;DHT22;1333;50.958;6.770;2022-07-06T09:51:51;20.30;99.90
2647;DHT22;1333;50.958;6.770;2022-07-06T09:54:17;20.90;99.90
2647;DHT22;1333;50.958;6.770;2022-07-06T09:56:44;21.80;99.90
2647;DHT22;1333;50.958;6.770;2022-07-06T09:59:15;23.60;99.90
2647;DHT22;1333;50.958;6.770;2022-07-06T10:01:41;26.20;95.80
2647;DHT22;1333;50.958;6.770;2022-07-06T10:04:08;29.00;80.10
2647;DHT22;1333;50.958;6.770;2022-07-06T10:06:35;31.60;57.10
2647;DHT22;1333;50.958;6.770;2022-07-06T10:09:04;33.40;47.30
2647;DHT22;1333;50.958;6.770;2022-07-06T10:11:31;34.60;43.10
2647;DHT22;1333;50.958;6.770;2022-07-06T10:13:58;36.20;39.50
2647;DHT22;1333;50.958;6.770;2022-07-06T10:16:26;36.20;37.10
2647;DHT22;1333;50.958;6.770;2022-07-06T10:18:53;36.30;35.80
2647;DHT22;1333;50.958;6.770;2022-07-06T10:21:24;36.20;34.10
2647;DHT22;1333;50.958;6.770;2022-07-06T10:23:50;35.40;35.70
2647;DHT22;1333;50.958;6.770;2022-07-06T10:26:17;34.50;36.10
2647;DHT22;1333;50.958;6.770;2022-07-06T10:28:44;34.60;36.70
2647;DHT22;1333;50.958;6.770;2022-07-06T10:31:13;33.90;37.20
2647;DHT22;1333;50.958;6.770;2022-07-06T10:33:39;33.70;39.00
2647;DHT22;1333;50.958;6.770;2022-07-06T10:36:06;34.40;37.30
2647;DHT22;1333;50.958;6.770;2022-07-06T10:38:34;35.50;35.70
2647;DHT22;1333;50.958;6.770;2022-07-06T10:41:05;35.90;34.90
2647;DHT22;1333;50.958;6.770;2022-07-06T10:43:42;37.10;33.70
2647;DHT22;1333;50.958;6.770;2022-07-06T10:46:15;37.10;33.20
2647;DHT22;1333;50.958;6.770;2022-07-06T10:48:42;37.40;32.10
2647;DHT22;1333;50.958;6.770;2022-07-06T10:51:10;37.20;32.30
2647;DHT22;1333;50.958;6.770;2022-07-06T10:53:38;37.10;31.70
2647;DHT22;1333;50.958;6.770;2022-07-06T10:56:07;35.80;30.70
2647;DHT22;1333;50.958;6.770;2022-07-06T10:58:47;35.30;33.20
2647;DHT22;1333;50.958;6.770;2022-07-06T11:01:13;35.80;32.80
2647;DHT22;1333;50.958;6.770;2022-07-06T11:06:15;36.00;32.40
2647;DHT22;1333;50.958;6.770;2022-07-06T11:08:52;36.20;33.00
2647;DHT22;1333;50.958;6.770;2022-07-06T11:14:01;36.40;31.40
2647;DHT22;1333;50.958;6.770;2022-07-06T11:16:29;35.80;32.20
2647;DHT22;1333;50.958;6.770;2022-07-06T11:19:01;36.80;33.30
2647;DHT22;1333;50.958;6.770;2022-07-06T11:24:03;37.30;30.50
2647;DHT22;1333;50.958;6.770;2022-07-06T11:26:30;37.50;30.10
2647;DHT22;1333;50.958;6.770;2022-07-06T11:28:56;37.60;29.50
2647;DHT22;1333;50.958;6.770;2022-07-06T11:31:23;36.90;29.50
2647;DHT22;1333;50.958;6.770;2022-07-06T11:33:49;35.80;30.60
2647;DHT22;1333;50.958;6.770;2022-07-06T11:36:16;35.00;30.80
2647;DHT22;1333;50.958;6.770;2022-07-06T11:38:43;34.20;32.60
2647;DHT22;1333;50.958;6.770;2022-07-06T11:41:09;33.30;32.40
2647;DHT22;1333;50.958;6.770;2022-07-06T11:43:37;32.60;34.80
2647;DHT22;1333;50.958;6.770;2022-07-06T11:46:03;32.70;36.20
2647;DHT22;1333;50.958;6.770;2022-07-06T11:48:28;33.00;36.00
2647;DHT22;1333;50.958;6.770;2022-07-06T11:50:58;33.10;34.20
2647;DHT22;1333;50.958;6.770;2022-07-06T11:53:25;32.80;35.30
2647;DHT22;1333;50.958;6.770;2022-07-06T11:55:50;32.30;35.80
2647;DHT22;1333;50.958;6.770;2022-07-06T11:58:21;31.70;35.30
2647;DHT22;1333;50.958;6.770;2022-07-06T12:01:07;30.10;35.50
2647;DHT22;1333;50.958;6.770;2022-07-06T12:03:33;29.30;37.90
2647;DHT22;1333;50.958;6.770;2022-07-06T12:06:01;28.60;38.10
2647;DHT22;1333;50.958;6.770;2022-07-06T12:08:26;28.00;40.40
2647;DHT22;1333;50.958;6.770;2022-07-06T12:10:52;27.70;40.50
2647;DHT22;1333;50.958;6.770;2022-07-06T12:13:18;27.30;40.20
2647;DHT22;1333;50.958;6.770;2022-07-06T12:15:44;26.80;41.40
2647;DHT22;1333;50.958;6.770;2022-07-06T12:18:09;26.60;42.90
2647;DHT22;1333;50.958;6.770;2022-07-06T12:20:35;26.50;44.00
2647;DHT22;1333;50.958;6.770;2022-07-06T12:23:05;26.40;42.60
2647;DHT22;1333;50.958;6.770;2022-07-06T12:25:35;26.50;44.10
2647;DHT22;1333;50.958;6.770;2022-07-06T12:28:02;26.40;42.00
2647;DHT22;1333;50.958;6.770;2022-07-06T12:30:28;26.30;42.90
2647;DHT22;1333;50.958;6.770;2022-07-06T12:33:13;26.30;43.90
2647;DHT22;1333;50.958;6.770;2022-07-06T12:35:43;26.50;42.60
2647;DHT22;1333;50.958;6.770;2022-07-06T12:38:09;26.80;43.60
2647;DHT22;1333;50.958;6.770;2022-07-06T12:40:38;27.20;41.10
2647;DHT22;1333;50.958;6.770;2022-07-06T12:43:04;27.20;42.10
2647;DHT22;1333;50.958;6.770;2022-07-06T12:45:31;27.60;43.90
2647;DHT22;1333;50.958;6.770;2022-07-06T12:48:01;28.00;42.20
2647;DHT22;1333;50.958;6.770;2022-07-06T12:50:31;27.80;41.30
2647;DHT22;1333;50.958;6.770;2022-07-06T12:53:00;27.90;43.00
2647;DHT22;1333;50.958;6.770;2022-07-06T12:55:27;27.70;41.40
2647;DHT22;1333;50.958;6.770;2022-07-06T12:57:57;27.50;43.80
2647;DHT22;1333;50.958;6.770;2022-07-06T13:00:23;27.80;42.30
2647;DHT22;1333;50.958;6.770;2022-07-06T13:02:51;27.90;43.10
2647;DHT22;1333;50.958;6.770;2022-07-06T13:05:26;28.20;42.50
2647;DHT22;1333;50.958;6.770;2022-07-06T13:07:56;28.50;42.20
2647;DHT22;1333;50.958;6.770;2022-07-06T13:10:23;28.90;41.40
2647;DHT22;1333;50.958;6.770;2022-07-06T13:12:49;29.00;39.60
2647;DHT22;1333;50.958;6.770;2022-07-06T13:15:15;28.60;41.50
2647;DHT22;1333;50.958;6.770;2022-07-06T13:17:41;28.80;41.40
2647;DHT22;1333;50.958;6.770;2022-07-06T13:20:10;28.90;39.60
2647;DHT22;1333;50.958;6.770;2022-07-06T13:22:37;28.70;39.20
2647;DHT22;1333;50.958;6.770;2022-07-06T13:25:03;28.80;41.20
2647;DHT22;1333;50.958;6.770;2022-07-06T13:27:29;28.70;38.50
2647;DHT22;1333;50.958;6.770;2022-07-06T13:29:55;28.60;40.90
2647;DHT22;1333;50.958;6.770;2022-07-06T13:32:21;28.60;41.60
2647;DHT22;1333;50.958;6.770;2022-07-06T13:34:47;28.50;41.90
2647;DHT22;1333;50.958;6.770;2022-07-06T13:37:12;28.40;41.30
2647;DHT22;1333;50.958;6.770;2022-07-06T13:39:38;28.30;41.50
2647;DHT22;1333;50.958;6.770;2022-07-06T13:42:04;28.40;43.00
2647;DHT22;1333;50.958;6.770;2022-07-06T13:44:30;28.40;40.80
2647;DHT22;1333;50.958;6.770;2022-07-06T13:46:55;28.60;40.80
2647;DHT22;1333;50.958;6.770;2022-07-06T13:49:21;28.60;42.30
2647;DHT22;1333;50.958;6.770;2022-07-06T13:51:47;28.90;40.60
2647;DHT22;1333;50.958;6.770;2022-07-06T13:54:12;29.00;43.40
2647;DHT22;1333;50.958;6.770;2022-07-06T13:56:38;29.10;43.60
2647;DHT22;1333;50.958;6.770;2022-07-06T13:59:05;29.10;41.50
2647;DHT22;1333;50.958;6.770;2022-07-06T14:01:30;29.20;41.80
2647;DHT22;1333;50.958;6.770;2022-07-06T14:03:56;29.20;41.20
2647;DHT22;1333;50.958;6.770;2022-07-06T14:06:21;28.90;41.30
2647;DHT22;1333;50.958;6.770;2022-07-06T14:08:47;28.80;40.00
2647;DHT22;1333;50.958;6.770;2022-07-06T14:11:13;28.30;39.10
2647;DHT22;1333;50.958;6.770;2022-07-06T14:13:39;27.80;40.40
2647;DHT22;1333;50.958;6.770;2022-07-06T14:16:05;27.40;41.40
2647;DHT22;1333;50.958;6.770;2022-07-06T14:18:31;27.30;43.40
2647;DHT22;1333;50.958;6.770;2022-07-06T14:20:57;27.20;43.10
2647;DHT22;1333;50.958;6.770;2022-07-06T14:23:23;27.20;42.30
2647;DHT22;1333;50.958;6.770;2022-07-06T14:25:50;27.00;41.10
2647;DHT22;1333;50.958;6.770;2022-07-06T14:28:16;26.90;43.00
2647;DHT22;1333;50.958;6.770;2022-07-06T14:30:45;26.80;43.00
2647;DHT22;1333;50.958;6.770;2022-07-06T14:33:11;26.80;43.70
2647;DHT22;1333;50.958;6.770;2022-07-06T14:35:39;26.80;43.00
2647;DHT22;1333;50.958;6.770;2022-07-06T14:38:06;26.40;43.50
2647;DHT22;1333;50.958;6.770;2022-07-06T14:40:33;26.50;44.50
2647;DHT22;1333;50.958;6.770;2022-07-06T14:42:59;26.50;43.70
2647;DHT22;1333;50.958;6.770;2022-07-06T14:45:25;26.40;42.70
2647;DHT22;1333;50.958;6.770;2022-07-06T14:47:51;26.10;43.40
2647;DHT22;1333;50.958;6.770;2022-07-06T14:50:17;26.10;44.70
2647;DHT22;1333;50.958;6.770;2022-07-06T14:52:42;26.10;44.70
2647;DHT22;1333;50.958;6.770;2022-07-06T14:55:08;25.90;43.70
2647;DHT22;1333;50.958;6.770;2022-07-06T14:57:34;26.00;44.90
2647;DHT22;1333;50.958;6.770;2022-07-06T14:59:59;26.00;45.10
2647;DHT22;1333;50.958;6.770;2022-07-06T15:02:25;26.00;44.90
2647;DHT22;1333;50.958;6.770;2022-07-06T15:04:51;25.70;42.60
2647;DHT22;1333;50.958;6.770;2022-07-06T15:07:17;25.50;44.80
2647;DHT22;1333;50.958;6.770;2022-07-06T15:09:42;25.40;45.10
2647;DHT22;1333;50.958;6.770;2022-07-06T15:12:08;25.10;46.20
2647;DHT22;1333;50.958;6.770;2022-07-06T15:14:34;25.10;45.60
2647;DHT22;1333;50.958;6.770;2022-07-06T15:17:00;25.10;46.50
2647;DHT22;1333;50.958;6.770;2022-07-06T15:19:26;25.10;45.80
2647;DHT22;1333;50.958;6.770;2022-07-06T15:21:52;25.00;45.70
2647;DHT22;1333;50.958;6.770;2022-07-06T15:24:18;25.00;46.20
2647;DHT22;1333;50.958;6.770;2022-07-06T15:26:44;25.00;45.80
2647;DHT22;1333;50.958;6.770;2022-07-06T15:29:10;24.90;45.80
2647;DHT22;1333;50.958;6.770;2022-07-06T15:31:35;24.80;46.60
2647;DHT22;1333;50.958;6.770;2022-07-06T15:34:01;24.90;46.30
2647;DHT22;1333;50.958;6.770;2022-07-06T15:36:27;24.70;45.70
2647;DHT22;1333;50.958;6.770;2022-07-06T15:38:52;24.50;45.90
2647;DHT22;1333;50.958;6.770;2022-07-06T15:41:18;24.50;46.50
2647;DHT22;1333;50.958;6.770;2022-07-06T15:43:44;24.50;47.00
2647;DHT22;1333;50.958;6.770;2022-07-06T15:46:11;24.40;46.60
2647;DHT22;1333;50.958;6.770;2022-07-06T15:48:36;24.30;45.60
2647;DHT22;1333;50.958;6.770;2022-07-06T15:51:03;24.40;45.50
2647;DHT22;1333;50.958;6.770;2022-07-06T15:53:29;24.40;46.60
2647;DHT22;1333;50.958;6.770;2022-07-06T15:55:56;24.30;47.20
2647;DHT22;1333;50.958;6.770;2022-07-06T15:58:22;24.30;46.00
2647;DHT22;1333;50.958;6.770;2022-07-06T16:00:47;24.20;46.90
2647;DHT22;1333;50.958;6.770;2022-07-06T16:03:13;24.10;48.10
2647;DHT22;1333;50.958;6.770;2022-07-06T16:05:38;24.00;50.20
2647;DHT22;1333;50.958;6.770;2022-07-06T16:08:04;24.10;47.90
2647;DHT22;1333;50.958;6.770;2022-07-06T16:10:30;24.10;48.10